sensor_id;sensor_type;location;lat;lon;timestamp;temperature;humidity
16999;DHT22;10211;49.476;11.010;2023-02-19T00:01:37;9.30;99.90
16999;DHT22;10211;49.476;11.010;2023-02-19T00:04:05;9.30;99.90
16999;DHT22;10211;49.476;11.010;2023-02-19T00:06:34;9.30;99.90
16999;DHT22;10211;49.476;11.010;2023-02-19T00:09:02;9.30;99.90
16999;DHT22;10211;49.476;11.010;2023-02-19T00:11:30;9.30;99.90
16999;DHT22;10211;49.476;11.010;2023-02-19T00:13:59;9.20;99.90
16999;DHT22;10211;49.476;11.010;2023-02-19T00:16:27;9.20;99.90
16999;DHT22;10211;49.476;11.010;2023-02-19T00:18:55;9.20;99.90
16999;DHT22;10211;49.476;11.010;2023-02-19T00:21:23;9.20;99.90
16999;DHT22;10211;49.476;11.010;2023-02-19T00:23:55;9.20;99.90
16999;DHT22;10211;49.476;11.010;2023-02-19T00:26:23;9.20;99.90
16999;DHT22;10211;49.476;11.010;2023-02-19T00:28:51;9.20;99.90
16999;DHT22;10211;49.476;11.010;2023-02-19T00:31:20;9.20;99.90
16999;DHT22;10211;49.476;11.010;2023-02-19T00:33:48;9.20;99.90
16999;DHT22;10211;49.476;11.010;2023-02-19T00:36:15;9.10;99.90
16999;DHT22;10211;49.476;11.010;2023-02-19T00:38:43;9.10;99.90
16999;DHT22;10211;49.476;11.010;2023-02-19T00:41:12;9.00;99.90
16999;DHT22;10211;49.476;11.010;2023-02-19T00:43:46;9.00;99.90
16999;DHT22;10211;49.476;11.010;2023-02-19T00:46:14;8.90;99.90
16999;DHT22;10211;49.476;11.010;2023-02-19T00:48:40;8.80;99.90
16999;DHT22;10211;49.476;11.010;2023-02-19T00:51:07;8.80;99.90
16999;DHT22;10211;49.476;11.010;2023-02-19T00:53:34;8.80;99.90
16999;DHT22;10211;49.476;11.010;2023-02-19T00:56:01;8.70;99.90
16999;DHT22;10211;49.476;11.010;2023-02-19T00:58:29;8.70;99.90
16999;DHT22;10211;49.476;11.010;2023-02-19T01:00:55;8.70;99.90
16999;DHT22;10211;49.476;11.010;2023-02-19T01:03:22;8.70;99.90
16999;DHT22;10211;49.476;11.010;2023-02-19T01:05:49;8.70;99.90
16999;DHT22;10211;49.476;11.010;2023-02-19T01:08:16;8.60;99.90
16999;DHT22;10211;49.476;11.010;2023-02-19T01:10:43;8.60;99.90
16999;DHT22;10211;49.476;11.010;2023-02-19T01:13:10;8.60;99.90
16999;DHT22;10211;49.476;11.010;2023-02-19T01:15:39;8.50;99.90
16999;DHT22;10211;49.476;11.010;2023-02-19T01:18:06;8.50;99.90
16999;DHT22;10211;49.476;11.010;2023-02-19T01:20:33;8.50;99.90
16999;DHT22;10211;49.476;11.010;2023-02-19T01:22:59;8.50;99.90
16999;DHT22;10211;49.476;11.010;2023-02-19T01:25:26;8.50;99.90
16999;DHT22;10211;49.476;11.010;2023-02-19T01:27:53;8.50;99.90
16999;DHT22;10211;49.476;11.010;2023-02-19T01:30:19;8.50;99.90
16999;DHT22;10211;49.476;11.010;2023-02-19T01:32:47;8.50;99.90
16999;DHT22;10211;49.476;11.010;2023-02-19T01:35:14;8.50;99.90
16999;DHT22;10211;49.476;11.010;2023-02-19T01:37:41;8.60;99.90
16999;DHT22;10211;49.476;11.010;2023-02-19T01:40:08;8.60;99.90
16999;DHT22;10211;49.476;11.010;2023-02-19T01:42:35;8.60;99.90
16999;DHT22;10211;49.476;11.010;2023-02-19T01:45:24;8.60;99.90
16999;DHT22;10211;49.476;11.010;2023-02-19T01:48:02;8.60;99.90
16999;DHT22;10211;49.476;11.010;2023-02-19T01:50:33;8.60;99.90
16999;DHT22;10211;49.476;11.010;2023-02-19T01:53:03;8.60;99.90
16999;DHT22;10211;49.476;11.010;2023-02-19T01:55:32;8.60;99.90
16999;DHT22;10211;49.476;11.010;2023-02-19T01:58:00;8.60;99.90
16999;DHT22;10211;49.476;11.010;2023-02-19T02:00:27;8.60;99.90
16999;DHT22;10211;49.476;11.010;2023-02-19T02:02:57;8.50;99.90
16999;DHT22;10211;49.476;11.010;2023-02-19T02:05:40;8.50;99.90
16999;DHT22;10211;49.476;11.010;2023-02-19T02:08:11;8.50;99.90
16999;DHT22;10211;49.476;11.010;2023-02-19T02:10:55;8.50;99.90
16999;DHT22;10211;49.476;11.010;2023-02-19T02:13:23;8.50;99.90
16999;DHT22;10211;49.476;11.010;2023-02-19T02:15:58;8.50;99.90
16999;DHT22;10211;49.476;11.010;2023-02-19T02:18:36;8.50;99.90
16999;DHT22;10211;49.476;11.010;2023-02-19T02:24:11;8.50;99.90
16999;DHT22;10211;49.476;11.010;2023-02-19T02:26:55;8.60;99.90
16999;DHT22;10211;49.476;11.010;2023-02-19T02:30:02;8.60;99.90
16999;DHT22;10211;49.476;11.010;2023-02-19T02:32:34;8.60;99.90
16999;DHT22;10211;49.476;11.010;2023-02-19T02:35:07;8.60;99.90
16999;DHT22;10211;49.476;11.010;2023-02-19T02:37:37;8.60;99.90
16999;DHT22;10211;49.476;11.010;2023-02-19T02:40:06;8.60;99.90
16999;DHT22;10211;49.476;11.010;2023-02-19T02:42:36;8.60;99.90
16999;DHT22;10211;49.476;11.010;2023-02-19T02:45:23;8.60;99.90
16999;DHT22;10211;49.476;11.010;2023-02-19T02:48:09;8.60;99.90
16999;DHT22;10211;49.476;11.010;2023-02-19T02:50:41;8.60;99.90
16999;DHT22;10211;49.476;11.010;2023-02-19T02:53:13;8.60;99.90
16999;DHT22;10211;49.476;11.010;2023-02-19T02:56:12;8.60;99.90
16999;DHT22;10211;49.476;11.010;2023-02-19T02:58:40;8.60;99.90
16999;DHT22;10211;49.476;11.010;2023-02-19T03:01:10;8.60;99.90
16999;DHT22;10211;49.476;11.010;2023-02-19T03:04:00;8.60;99.90
16999;DHT22;10211;49.476;11.010;2023-02-19T03:06:30;8.60;99.90
16999;DHT22;10211;49.476;11.010;2023-02-19T03:09:05;8.60;99.90
16999;DHT22;10211;49.476;11.010;2023-02-19T03:11:33;8.60;99.90
16999;DHT22;10211;49.476;11.010;2023-02-19T03:14:32;8.60;99.90
16999;DHT22;10211;49.476;11.010;2023-02-19T03:17:21;8.70;99.90
16999;DHT22;10211;49.476;11.010;2023-02-19T03:20:11;8.70;99.90
16999;DHT22;10211;49.476;11.010;2023-02-19T03:22:41;8.70;99.90
16999;DHT22;10211;49.476;11.010;2023-02-19T03:25:32;8.70;99.90
16999;DHT22;10211;49.476;11.010;2023-02-19T03:28:21;8.70;99.90
16999;DHT22;10211;49.476;11.010;2023-02-19T03:31:09;8.80;99.90
16999;DHT22;10211;49.476;11.010;2023-02-19T03:33:39;8.80;99.90
16999;DHT22;10211;49.476;11.010;2023-02-19T03:36:11;8.80;99.90
16999;DHT22;10211;49.476;11.010;2023-02-19T03:38:43;8.80;99.90
16999;DHT22;10211;49.476;11.010;2023-02-19T03:41:18;8.80;99.90
16999;DHT22;10211;49.476;11.010;2023-02-19T03:43:54;8.80;99.90
16999;DHT22;10211;49.476;11.010;2023-02-19T03:46:32;8.80;99.90
16999;DHT22;10211;49.476;11.010;2023-02-19T03:49:05;8.80;99.90
16999;DHT22;10211;49.476;11.010;2023-02-19T03:51:38;8.80;99.90
16999;DHT22;10211;49.476;11.010;2023-02-19T03:54:11;8.80;99.90
16999;DHT22;10211;49.476;11.010;2023-02-19T03:56:44;8.80;99.90
16999;DHT22;10211;49.476;11.010;2023-02-19T03:59:16;8.80;99.90
16999;DHT22;10211;49.476;11.010;2023-02-19T04:01:47;8.80;99.90
16999;DHT22;10211;49.476;11.010;2023-02-19T04:04:20;8.80;99.90
16999;DHT22;10211;49.476;11.010;2023-02-19T04:06:52;8.80;99.90
16999;DHT22;10211;49.476;11.010;2023-02-19T04:09:20;8.80;99.90
16999;DHT22;10211;49.476;11.010;2023-02-19T04:11:47;8.80;99.90
16999;DHT22;10211;49.476;11.010;2023-02-19T04:14:17;8.80;99.90
16999;DHT22;10211;49.476;11.010;2023-02-19T04:16:50;8.80;99.90
16999;DHT22;10211;49.476;11.010;2023-02-19T04:19:20;8.80;99.90
16999;DHT22;10211;49.476;11.010;2023-02-19T04:21:49;8.80;99.90
16999;DHT22;10211;49.476;11.010;2023-02-19T04:24:22;8.80;99.90
16999;DHT22;10211;49.476;11.010;2023-02-19T04:26:50;8.80;99.90
16999;DHT22;10211;49.476;11.010;2023-02-19T04:29:18;8.80;99.90
16999;DHT22;10211;49.476;11.010;2023-02-19T04:31:44;8.80;99.90
16999;DHT22;10211;49.476;11.010;2023-02-19T04:34:11;8.80;99.90
16999;DHT22;10211;49.476;11.010;2023-02-19T04:36:39;8.80;99.90
16999;DHT22;10211;49.476;11.010;2023-02-19T04:39:06;8.80;99.90
16999;DHT22;10211;49.476;11.010;2023-02-19T04:41:33;8.80;99.90
16999;DHT22;10211;49.476;11.010;2023-02-19T04:44:00;8.80;99.90
16999;DHT22;10211;49.476;11.010;2023-02-19T04:46:26;8.80;99.90
16999;DHT22;10211;49.476;11.010;2023-02-19T04:48:53;8.80;99.90
16999;DHT22;10211;49.476;11.010;2023-02-19T04:51:20;8.80;99.90
16999;DHT22;10211;49.476;11.010;2023-02-19T04:53:48;8.80;99.90
16999;DHT22;10211;49.476;11.010;2023-02-19T04:56:15;8.80;99.90
16999;DHT22;10211;49.476;11.010;2023-02-19T04:58:43;8.80;99.90
16999;DHT22;10211;49.476;11.010;2023-02-19T05:01:10;8.80;99.90
16999;DHT22;10211;49.476;11.010;2023-02-19T05:03:36;8.80;99.90
16999;DHT22;10211;49.476;11.010;2023-02-19T05:06:04;8.80;99.90
16999;DHT22;10211;49.476;11.010;2023-02-19T05:08:31;8.80;99.90
16999;DHT22;10211;49.476;11.010;2023-02-19T05:11:00;8.80;99.90
16999;DHT22;10211;49.476;11.010;2023-02-19T05:13:27;8.80;99.90
16999;DHT22;10211;49.476;11.010;2023-02-19T05:15:55;8.80;99.90
16999;DHT22;10211;49.476;11.010;2023-02-19T05:18:22;8.80;99.90
16999;DHT22;10211;49.476;11.010;2023-02-19T05:20:49;8.80;99.90
16999;DHT22;10211;49.476;11.010;2023-02-19T05:23:16;8.80;99.90
16999;DHT22;10211;49.476;11.010;2023-02-19T05:25:43;8.80;99.90
16999;DHT22;10211;49.476;11.010;2023-02-19T05:28:11;8.90;99.90
16999;DHT22;10211;49.476;11.010;2023-02-19T05:30:45;8.90;99.90
16999;DHT22;10211;49.476;11.010;2023-02-19T05:33:13;8.90;99.90
16999;DHT22;10211;49.476;11.010;2023-02-19T05:35:41;8.90;99.90
16999;DHT22;10211;49.476;11.010;2023-02-19T05:38:08;9.00;99.90
16999;DHT22;10211;49.476;11.010;2023-02-19T05:40:35;9.00;99.90
16999;DHT22;10211;49.476;11.010;2023-02-19T05:43:02;9.00;99.90
16999;DHT22;10211;49.476;11.010;2023-02-19T05:45:30;8.70;99.90
16999;DHT22;10211;49.476;11.010;2023-02-19T05:47:57;9.10;99.90
16999;DHT22;10211;49.476;11.010;2023-02-19T05:50:24;9.10;99.90
16999;DHT22;10211;49.476;11.010;2023-02-19T05:52:51;9.00;99.90
16999;DHT22;10211;49.476;11.010;2023-02-19T05:55:18;9.00;99.90
16999;DHT22;10211;49.476;11.010;2023-02-19T05:57:46;9.00;99.90
16999;DHT22;10211;49.476;11.010;2023-02-19T06:00:15;9.00;99.90
16999;DHT22;10211;49.476;11.010;2023-02-19T06:02:44;9.10;99.90
16999;DHT22;10211;49.476;11.010;2023-02-19T06:05:10;9.00;99.90
16999;DHT22;10211;49.476;11.010;2023-02-19T06:07:38;9.00;99.90
16999;DHT22;10211;49.476;11.010;2023-02-19T06:10:07;9.00;99.90
16999;DHT22;10211;49.476;11.010;2023-02-19T06:12:34;9.00;99.90
16999;DHT22;10211;49.476;11.010;2023-02-19T06:15:00;8.90;99.90
16999;DHT22;10211;49.476;11.010;2023-02-19T06:17:28;8.90;99.90
16999;DHT22;10211;49.476;11.010;2023-02-19T06:19:56;8.80;99.90
16999;DHT22;10211;49.476;11.010;2023-02-19T06:22:23;8.80;99.90
16999;DHT22;10211;49.476;11.010;2023-02-19T06:24:50;8.80;99.90
16999;DHT22;10211;49.476;11.010;2023-02-19T06:27:16;8.80;99.90
16999;DHT22;10211;49.476;11.010;2023-02-19T06:29:43;8.70;99.90
16999;DHT22;10211;49.476;11.010;2023-02-19T06:32:10;8.70;99.90
16999;DHT22;10211;49.476;11.010;2023-02-19T06:34:37;8.80;99.90
16999;DHT22;10211;49.476;11.010;2023-02-19T06:37:05;8.80;99.90
16999;DHT22;10211;49.476;11.010;2023-02-19T06:39:31;8.80;99.90
16999;DHT22;10211;49.476;11.010;2023-02-19T06:41:58;8.80;99.90
16999;DHT22;10211;49.476;11.010;2023-02-19T06:44:25;8.80;99.90
16999;DHT22;10211;49.476;11.010;2023-02-19T06:46:54;8.80;99.90
16999;DHT22;10211;49.476;11.010;2023-02-19T06:49:21;8.90;99.90
16999;DHT22;10211;49.476;11.010;2023-02-19T06:51:47;8.90;99.90
16999;DHT22;10211;49.476;11.010;2023-02-19T06:54:15;8.80;99.90
16999;DHT22;10211;49.476;11.010;2023-02-19T06:56:42;8.90;99.90
16999;DHT22;10211;49.476;11.010;2023-02-19T06:59:11;8.90;99.90
16999;DHT22;10211;49.476;11.010;2023-02-19T07:01:39;9.00;99.90
16999;DHT22;10211;49.476;11.010;2023-02-19T07:04:06;9.00;99.90
16999;DHT22;10211;49.476;11.010;2023-02-19T07:06:34;9.00;99.90
16999;DHT22;10211;49.476;11.010;2023-02-19T07:09:02;9.00;99.90
16999;DHT22;10211;49.476;11.010;2023-02-19T07:11:32;9.00;99.90
16999;DHT22;10211;49.476;11.010;2023-02-19T07:14:03;9.10;99.90
16999;DHT22;10211;49.476;11.010;2023-02-19T07:16:31;9.10;99.90
16999;DHT22;10211;49.476;11.010;2023-02-19T07:18:59;9.10;99.90
16999;DHT22;10211;49.476;11.010;2023-02-19T07:21:27;9.20;99.90
16999;DHT22;10211;49.476;11.010;2023-02-19T07:23:54;9.20;99.90
16999;DHT22;10211;49.476;11.010;2023-02-19T07:26:23;9.20;99.90
16999;DHT22;10211;49.476;11.010;2023-02-19T07:28:51;9.30;99.90
16999;DHT22;10211;49.476;11.010;2023-02-19T07:31:20;9.30;99.90
16999;DHT22;10211;49.476;11.010;2023-02-19T07:33:47;9.40;99.90
16999;DHT22;10211;49.476;11.010;2023-02-19T07:36:14;9.40;99.90
16999;DHT22;10211;49.476;11.010;2023-02-19T07:38:42;9.40;99.90
16999;DHT22;10211;49.476;11.010;2023-02-19T07:41:09;9.40;99.90
16999;DHT22;10211;49.476;11.010;2023-02-19T07:43:37;9.50;99.90
16999;DHT22;10211;49.476;11.010;2023-02-19T07:46:06;9.50;99.90
16999;DHT22;10211;49.476;11.010;2023-02-19T07:48:34;9.50;99.90
16999;DHT22;10211;49.476;11.010;2023-02-19T07:51:02;9.50;99.90
16999;DHT22;10211;49.476;11.010;2023-02-19T07:53:30;9.50;99.90
16999;DHT22;10211;49.476;11.010;2023-02-19T07:56:00;9.50;99.90
16999;DHT22;10211;49.476;11.010;2023-02-19T07:58:27;9.50;99.90
16999;DHT22;10211;49.476;11.010;2023-02-19T08:00:53;9.60;99.90
16999;DHT22;10211;49.476;11.010;2023-02-19T08:03:21;9.60;99.90
16999;DHT22;10211;49.476;11.010;2023-02-19T08:05:48;9.60;99.90
16999;DHT22;10211;49.476;11.010;2023-02-19T08:08:16;9.80;99.90
16999;DHT22;10211;49.476;11.010;2023-02-19T08:10:43;9.70;99.90
16999;DHT22;10211;49.476;11.010;2023-02-19T08:13:28;9.70;99.90
16999;DHT22;10211;49.476;11.010;2023-02-19T08:16:08;9.70;99.90
16999;DHT22;10211;49.476;11.010;2023-02-19T08:18:37;9.80;99.90
16999;DHT22;10211;49.476;11.010;2023-02-19T08:21:04;9.80;99.90
16999;DHT22;10211;49.476;11.010;2023-02-19T08:23:30;9.80;99.90
16999;DHT22;10211;49.476;11.010;2023-02-19T08:25:59;9.90;99.90
16999;DHT22;10211;49.476;11.010;2023-02-19T08:28:26;9.90;99.90
16999;DHT22;10211;49.476;11.010;2023-02-19T08:30:58;10.00;99.90
16999;DHT22;10211;49.476;11.010;2023-02-19T08:33:24;10.00;99.90
16999;DHT22;10211;49.476;11.010;2023-02-19T08:35:53;10.10;99.90
16999;DHT22;10211;49.476;11.010;2023-02-19T08:38:19;10.10;99.90
16999;DHT22;10211;49.476;11.010;2023-02-19T08:40:46;10.10;99.90
16999;DHT22;10211;49.476;11.010;2023-02-19T08:43:14;10.00;99.90
16999;DHT22;10211;49.476;11.010;2023-02-19T08:45:43;10.00;99.90
16999;DHT22;10211;49.476;11.010;2023-02-19T08:48:11;10.00;99.90
16999;DHT22;10211;49.476;11.010;2023-02-19T08:50:38;10.00;99.90
16999;DHT22;10211;49.476;11.010;2023-02-19T08:53:06;10.10;99.90
16999;DHT22;10211;49.476;11.010;2023-02-19T08:55:36;10.10;99.90
16999;DHT22;10211;49.476;11.010;2023-02-19T08:58:03;10.00;99.90
16999;DHT22;10211;49.476;11.010;2023-02-19T09:00:30;10.00;99.90
16999;DHT22;10211;49.476;11.010;2023-02-19T09:02:57;10.00;99.90
16999;DHT22;10211;49.476;11.010;2023-02-19T09:05:24;10.10;99.90
16999;DHT22;10211;49.476;11.010;2023-02-19T09:07:54;10.10;99.90
16999;DHT22;10211;49.476;11.010;2023-02-19T09:10:23;10.30;99.90
16999;DHT22;10211;49.476;11.010;2023-02-19T09:12:50;10.50;99.90
16999;DHT22;10211;49.476;11.010;2023-02-19T09:15:16;10.60;99.90
16999;DHT22;10211;49.476;11.010;2023-02-19T09:17:43;10.60;99.90
16999;DHT22;10211;49.476;11.010;2023-02-19T09:20:10;10.60;99.90
16999;DHT22;10211;49.476;11.010;2023-02-19T09:22:37;10.70;99.90
16999;DHT22;10211;49.476;11.010;2023-02-19T09:25:04;10.70;99.90
16999;DHT22;10211;49.476;11.010;2023-02-19T09:27:32;10.70;99.90
16999;DHT22;10211;49.476;11.010;2023-02-19T09:29:59;10.70;99.90
16999;DHT22;10211;49.476;11.010;2023-02-19T09:32:29;10.60;99.90
16999;DHT22;10211;49.476;11.010;2023-02-19T09:34:56;10.50;99.90
16999;DHT22;10211;49.476;11.010;2023-02-19T09:37:53;10.40;99.90
16999;DHT22;10211;49.476;11.010;2023-02-19T09:40:20;10.40;99.90
16999;DHT22;10211;49.476;11.010;2023-02-19T09:42:49;10.50;99.90
16999;DHT22;10211;49.476;11.010;2023-02-19T09:45:20;10.80;99.90
16999;DHT22;10211;49.476;11.010;2023-02-19T09:47:49;11.20;99.90
16999;DHT22;10211;49.476;11.010;2023-02-19T09:50:30;11.30;99.90
16999;DHT22;10211;49.476;11.010;2023-02-19T09:53:00;11.00;99.90
16999;DHT22;10211;49.476;11.010;2023-02-19T09:55:31;10.80;99.90
16999;DHT22;10211;49.476;11.010;2023-02-19T09:58:02;10.60;99.90
16999;DHT22;10211;49.476;11.010;2023-02-19T10:00:33;10.50;99.90
16999;DHT22;10211;49.476;11.010;2023-02-19T10:03:03;10.40;99.90
16999;DHT22;10211;49.476;11.010;2023-02-19T10:05:31;10.50;99.90
16999;DHT22;10211;49.476;11.010;2023-02-19T10:08:03;10.50;99.90
16999;DHT22;10211;49.476;11.010;2023-02-19T10:10:32;10.50;99.90
16999;DHT22;10211;49.476;11.010;2023-02-19T10:13:14;10.50;99.90
16999;DHT22;10211;49.476;11.010;2023-02-19T10:15:45;10.50;99.90
16999;DHT22;10211;49.476;11.010;2023-02-19T10:18:16;10.50;99.90
16999;DHT22;10211;49.476;11.010;2023-02-19T10:20:43;10.60;99.90
16999;DHT22;10211;49.476;11.010;2023-02-19T10:23:11;10.60;99.90
16999;DHT22;10211;49.476;11.010;2023-02-19T10:25:41;10.60;99.90
16999;DHT22;10211;49.476;11.010;2023-02-19T10:28:14;10.50;99.90
16999;DHT22;10211;49.476;11.010;2023-02-19T10:30:42;10.40;99.90
16999;DHT22;10211;49.476;11.010;2023-02-19T10:33:10;10.40;99.90
16999;DHT22;10211;49.476;11.010;2023-02-19T10:35:50;10.50;99.90
16999;DHT22;10211;49.476;11.010;2023-02-19T10:40:53;10.60;99.90
16999;DHT22;10211;49.476;11.010;2023-02-19T10:43:25;10.80;99.90
16999;DHT22;10211;49.476;11.010;2023-02-19T10:46:00;10.80;99.90
16999;DHT22;10211;49.476;11.010;2023-02-19T10:48:28;10.70;99.90
16999;DHT22;10211;49.476;11.010;2023-02-19T10:50:58;10.60;99.90
16999;DHT22;10211;49.476;11.010;2023-02-19T10:53:40;10.50;99.90
16999;DHT22;10211;49.476;11.010;2023-02-19T10:59:31;10.60;99.90
16999;DHT22;10211;49.476;11.010;2023-02-19T11:01:58;10.60;99.90
16999;DHT22;10211;49.476;11.010;2023-02-19T11:04:27;10.60;99.90
16999;DHT22;10211;49.476;11.010;2023-02-19T11:06:55;10.50;99.90
16999;DHT22;10211;49.476;11.010;2023-02-19T11:09:33;10.40;99.90
16999;DHT22;10211;49.476;11.010;2023-02-19T11:12:03;10.40;99.90
16999;DHT22;10211;49.476;11.010;2023-02-19T11:14:33;10.40;99.90
16999;DHT22;10211;49.476;11.010;2023-02-19T11:17:01;10.30;99.90
16999;DHT22;10211;49.476;11.010;2023-02-19T11:19:34;10.10;99.90
16999;DHT22;10211;49.476;11.010;2023-02-19T11:22:16;10.00;99.90
16999;DHT22;10211;49.476;11.010;2023-02-19T11:24:48;9.80;99.90
16999;DHT22;10211;49.476;11.010;2023-02-19T11:27:18;9.70;99.90
16999;DHT22;10211;49.476;11.010;2023-02-19T11:29:47;9.60;99.90
16999;DHT22;10211;49.476;11.010;2023-02-19T11:32:26;9.50;99.90
16999;DHT22;10211;49.476;11.010;2023-02-19T11:35:14;9.50;99.90
16999;DHT22;10211;49.476;11.010;2023-02-19T11:38:06;9.40;99.90
16999;DHT22;10211;49.476;11.010;2023-02-19T11:40:39;9.30;99.90
16999;DHT22;10211;49.476;11.010;2023-02-19T11:43:19;9.30;99.90
16999;DHT22;10211;49.476;11.010;2023-02-19T11:45:52;9.30;99.90
16999;DHT22;10211;49.476;11.010;2023-02-19T11:48:31;9.30;99.90
16999;DHT22;10211;49.476;11.010;2023-02-19T11:51:15;9.30;99.90
16999;DHT22;10211;49.476;11.010;2023-02-19T11:53:46;9.40;99.90
16999;DHT22;10211;49.476;11.010;2023-02-19T11:56:15;9.40;99.90
16999;DHT22;10211;49.476;11.010;2023-02-19T11:59:01;9.60;99.90
16999;DHT22;10211;49.476;11.010;2023-02-19T12:02:04;9.70;99.90
16999;DHT22;10211;49.476;11.010;2023-02-19T12:05:04;9.70;99.90
16999;DHT22;10211;49.476;11.010;2023-02-19T12:10:35;9.60;99.90
16999;DHT22;10211;49.476;11.010;2023-02-19T12:13:14;9.60;99.90
16999;DHT22;10211;49.476;11.010;2023-02-19T12:16:05;9.70;99.90
16999;DHT22;10211;49.476;11.010;2023-02-19T12:19:09;9.90;99.90
16999;DHT22;10211;49.476;11.010;2023-02-19T12:21:49;10.30;99.90
16999;DHT22;10211;49.476;11.010;2023-02-19T12:27:40;10.40;99.90
16999;DHT22;10211;49.476;11.010;2023-02-19T12:30:39;10.30;99.90
16999;DHT22;10211;49.476;11.010;2023-02-19T12:33:32;10.20;99.90
16999;DHT22;10211;49.476;11.010;2023-02-19T12:36:11;10.10;99.90
16999;DHT22;10211;49.476;11.010;2023-02-19T12:38:44;10.20;99.90
16999;DHT22;10211;49.476;11.010;2023-02-19T12:41:19;10.20;99.90
16999;DHT22;10211;49.476;11.010;2023-02-19T12:43:55;10.30;99.90
16999;DHT22;10211;49.476;11.010;2023-02-19T12:46:28;10.40;99.90
16999;DHT22;10211;49.476;11.010;2023-02-19T12:49:00;10.40;99.90
16999;DHT22;10211;49.476;11.010;2023-02-19T12:51:38;10.90;99.90
16999;DHT22;10211;49.476;11.010;2023-02-19T12:54:11;11.60;99.90
16999;DHT22;10211;49.476;11.010;2023-02-19T12:56:41;11.90;99.90
16999;DHT22;10211;49.476;11.010;2023-02-19T12:59:12;11.90;99.90
16999;DHT22;10211;49.476;11.010;2023-02-19T13:01:47;11.90;99.90
16999;DHT22;10211;49.476;11.010;2023-02-19T13:04:21;11.80;99.90
16999;DHT22;10211;49.476;11.010;2023-02-19T13:06:55;11.60;99.90
16999;DHT22;10211;49.476;11.010;2023-02-19T13:09:28;11.30;99.90
16999;DHT22;10211;49.476;11.010;2023-02-19T13:12:01;11.00;99.90
16999;DHT22;10211;49.476;11.010;2023-02-19T13:14:32;10.90;99.90
16999;DHT22;10211;49.476;11.010;2023-02-19T13:17:03;10.80;99.90
16999;DHT22;10211;49.476;11.010;2023-02-19T13:19:33;10.80;99.90
16999;DHT22;10211;49.476;11.010;2023-02-19T13:22:11;10.60;99.90
16999;DHT22;10211;49.476;11.010;2023-02-19T13:25:09;10.50;99.90
16999;DHT22;10211;49.476;11.010;2023-02-19T13:27:52;10.50;99.90
16999;DHT22;10211;49.476;11.010;2023-02-19T13:30:39;10.60;99.90
16999;DHT22;10211;49.476;11.010;2023-02-19T13:33:21;10.60;99.90
16999;DHT22;10211;49.476;11.010;2023-02-19T13:36:00;11.20;99.90
16999;DHT22;10211;49.476;11.010;2023-02-19T13:38:32;11.60;99.90
16999;DHT22;10211;49.476;11.010;2023-02-19T13:41:03;12.20;99.90
16999;DHT22;10211;49.476;11.010;2023-02-19T13:43:33;12.40;99.90
16999;DHT22;10211;49.476;11.010;2023-02-19T13:46:06;12.30;99.90
16999;DHT22;10211;49.476;11.010;2023-02-19T13:48:35;12.10;99.90
16999;DHT22;10211;49.476;11.010;2023-02-19T13:51:37;11.80;99.90
16999;DHT22;10211;49.476;11.010;2023-02-19T13:54:20;11.50;99.90
16999;DHT22;10211;49.476;11.010;2023-02-19T13:56:49;11.30;99.90
16999;DHT22;10211;49.476;11.010;2023-02-19T13:59:37;11.00;99.90
16999;DHT22;10211;49.476;11.010;2023-02-19T14:02:22;11.00;99.90
16999;DHT22;10211;49.476;11.010;2023-02-19T14:04:52;11.00;99.90
16999;DHT22;10211;49.476;11.010;2023-02-19T14:07:46;11.10;99.90
16999;DHT22;10211;49.476;11.010;2023-02-19T14:13:57;11.30;99.90
16999;DHT22;10211;49.476;11.010;2023-02-19T14:16:59;11.10;99.90
16999;DHT22;10211;49.476;11.010;2023-02-19T14:19:59;10.70;99.90
16999;DHT22;10211;49.476;11.010;2023-02-19T14:22:50;10.30;99.90
16999;DHT22;10211;49.476;11.010;2023-02-19T14:25:46;10.10;99.90
16999;DHT22;10211;49.476;11.010;2023-02-19T14:28:21;10.00;99.90
16999;DHT22;10211;49.476;11.010;2023-02-19T14:30:50;9.80;99.90
16999;DHT22;10211;49.476;11.010;2023-02-19T14:33:21;9.70;99.90
16999;DHT22;10211;49.476;11.010;2023-02-19T14:35:51;9.60;99.90
16999;DHT22;10211;49.476;11.010;2023-02-19T14:38:21;9.50;99.90
16999;DHT22;10211;49.476;11.010;2023-02-19T14:40:51;9.50;99.90
16999;DHT22;10211;49.476;11.010;2023-02-19T14:43:21;9.40;99.90
16999;DHT22;10211;49.476;11.010;2023-02-19T14:45:52;9.50;99.90
16999;DHT22;10211;49.476;11.010;2023-02-19T14:48:25;9.60;99.90
16999;DHT22;10211;49.476;11.010;2023-02-19T14:50:57;9.50;99.90
16999;DHT22;10211;49.476;11.010;2023-02-19T14:53:26;9.50;99.90
16999;DHT22;10211;49.476;11.010;2023-02-19T14:55:55;9.50;99.90
16999;DHT22;10211;49.476;11.010;2023-02-19T14:58:27;9.60;99.90
16999;DHT22;10211;49.476;11.010;2023-02-19T15:00:54;9.60;99.90
16999;DHT22;10211;49.476;11.010;2023-02-19T15:03:26;9.60;99.90
16999;DHT22;10211;49.476;11.010;2023-02-19T15:05:55;9.60;99.90
16999;DHT22;10211;49.476;11.010;2023-02-19T15:08:28;9.70;99.90
16999;DHT22;10211;49.476;11.010;2023-02-19T15:10:58;9.90;99.90
16999;DHT22;10211;49.476;11.010;2023-02-19T15:13:28;10.10;99.90
16999;DHT22;10211;49.476;11.010;2023-02-19T15:15:56;10.20;99.90
16999;DHT22;10211;49.476;11.010;2023-02-19T15:18:24;10.40;99.90
16999;DHT22;10211;49.476;11.010;2023-02-19T15:20:58;10.40;99.90
16999;DHT22;10211;49.476;11.010;2023-02-19T15:23:26;10.30;99.90
16999;DHT22;10211;49.476;11.010;2023-02-19T15:25:55;10.20;99.90
16999;DHT22;10211;49.476;11.010;2023-02-19T15:28:29;10.10;99.90
16999;DHT22;10211;49.476;11.010;2023-02-19T15:31:13;10.10;99.90
16999;DHT22;10211;49.476;11.010;2023-02-19T15:33:48;10.00;99.90
16999;DHT22;10211;49.476;11.010;2023-02-19T15:36:21;10.00;99.90
16999;DHT22;10211;49.476;11.010;2023-02-19T15:38:55;10.00;99.90
16999;DHT22;10211;49.476;11.010;2023-02-19T15:41:25;10.00;99.90
16999;DHT22;10211;49.476;11.010;2023-02-19T15:43:58;9.90;99.90
16999;DHT22;10211;49.476;11.010;2023-02-19T15:46:26;9.90;99.90
16999;DHT22;10211;49.476;11.010;2023-02-19T15:48:59;9.80;99.90
16999;DHT22;10211;49.476;11.010;2023-02-19T15:51:30;9.70;99.90
16999;DHT22;10211;49.476;11.010;2023-02-19T15:54:05;9.60;99.90
16999;DHT22;10211;49.476;11.010;2023-02-19T15:56:42;9.50;99.90
16999;DHT22;10211;49.476;11.010;2023-02-19T15:59:17;9.40;99.90
16999;DHT22;10211;49.476;11.010;2023-02-19T16:01:46;9.40;99.90
16999;DHT22;10211;49.476;11.010;2023-02-19T16:04:15;9.30;99.90
16999;DHT22;10211;49.476;11.010;2023-02-19T16:06:54;9.30;99.90
16999;DHT22;10211;49.476;11.010;2023-02-19T16:09:22;9.30;99.90
16999;DHT22;10211;49.476;11.010;2023-02-19T16:11:51;9.30;99.90
16999;DHT22;10211;49.476;11.010;2023-02-19T16:14:27;9.20;99.90